sensor_id;sensor_type;location;lat;lon;timestamp;pressure;altitude;pressure_sealevel;temperature
14666;BMP280;7420;53.574;10.040;2023-05-15T00:00:38;54233.38;;;-136.87
14666;BMP280;7420;53.574;10.040;2023-05-15T00:03:04;54229.28;;;-136.87
14666;BMP280;7420;53.574;10.040;2023-05-15T00:05:30;54233.38;;;-136.87
14666;BMP280;7420;53.574;10.040;2023-05-15T00:07:55;54233.38;;;-136.87
14666;BMP280;7420;53.574;10.040;2023-05-15T00:10:20;54229.28;;;-136.87
14666;BMP280;7420;53.574;10.040;2023-05-15T00:12:46;54231.31;;;-136.87
14666;BMP280;7420;53.574;10.040;2023-05-15T00:15:11;54231.31;;;-136.87
14666;BMP280;7420;53.574;10.040;2023-05-15T00:17:37;54229.28;;;-136.87
14666;BMP280;7420;53.574;10.040;2023-05-15T00:20:02;54229.28;;;-136.87
14666;BMP280;7420;53.574;10.040;2023-05-15T00:22:29;54233.38;;;-136.87
14666;BMP280;7420;53.574;10.040;2023-05-15T00:24:54;54229.28;;;-136.87
14666;BMP280;7420;53.574;10.040;2023-05-15T00:27:20;54233.38;;;-136.87
14666;BMP280;7420;53.574;10.040;2023-05-15T00:29:45;54229.28;;;-136.87
14666;BMP280;7420;53.574;10.040;2023-05-15T00:32:10;54229.28;;;-136.87
14666;BMP280;7420;53.574;10.040;2023-05-15T00:34:36;54233.38;;;-136.87
14666;BMP280;7420;53.574;10.040;2023-05-15T00:37:01;54229.28;;;-136.87
14666;BMP280;7420;53.574;10.040;2023-05-15T00:39:26;54231.31;;;-136.87
14666;BMP280;7420;53.574;10.040;2023-05-15T00:41:52;54229.28;;;-136.87
14666;BMP280;7420;53.574;10.040;2023-05-15T00:44:18;54231.31;;;-136.87
14666;BMP280;7420;53.574;10.040;2023-05-15T00:46:47;54227.25;;;-136.87
14666;BMP280;7420;53.574;10.040;2023-05-15T00:49:14;54231.31;;;-136.87
14666;BMP280;7420;53.574;10.040;2023-05-15T00:51:40;54231.31;;;-136.87
14666;BMP280;7420;53.574;10.040;2023-05-15T00:54:07;54231.31;;;-136.87
14666;BMP280;7420;53.574;10.040;2023-05-15T00:56:33;54231.31;;;-136.87
14666;BMP280;7420;53.574;10.040;2023-05-15T00:58:59;54229.28;;;-136.87
14666;BMP280;7420;53.574;10.040;2023-05-15T01:01:26;54229.28;;;-136.87
14666;BMP280;7420;53.574;10.040;2023-05-15T01:03:57;54233.38;;;-136.87
14666;BMP280;7420;53.574;10.040;2023-05-15T01:06:23;54229.28;;;-136.87
14666;BMP280;7420;53.574;10.040;2023-05-15T01:08:48;54231.31;;;-136.87
14666;BMP280;7420;53.574;10.040;2023-05-15T01:11:15;54231.31;;;-136.87
14666;BMP280;7420;53.574;10.040;2023-05-15T01:13:41;54231.31;;;-136.87
14666;BMP280;7420;53.574;10.040;2023-05-15T01:16:07;54231.31;;;-136.87
14666;BMP280;7420;53.574;10.040;2023-05-15T01:18:33;54231.31;;;-136.87
14666;BMP280;7420;53.574;10.040;2023-05-15T01:28:55;54229.28;;;-136.87
14666;BMP280;7420;53.574;10.040;2023-05-15T01:31:23;54233.38;;;-136.87
14666;BMP280;7420;53.574;10.040;2023-05-15T01:33:54;54231.31;;;-136.87
14666;BMP280;7420;53.574;10.040;2023-05-15T01:36:29;54233.38;;;-136.87
14666;BMP280;7420;53.574;10.040;2023-05-15T01:38:58;54231.31;;;-136.87
14666;BMP280;7420;53.574;10.040;2023-05-15T01:41:28;54231.31;;;-136.87
14666;BMP280;7420;53.574;10.040;2023-05-15T01:44:03;54233.38;;;-136.87
14666;BMP280;7420;53.574;10.040;2023-05-15T01:46:33;54229.28;;;-136.87
14666;BMP280;7420;53.574;10.040;2023-05-15T01:49:00;54231.31;;;-136.87
14666;BMP280;7420;53.574;10.040;2023-05-15T01:51:28;54227.25;;;-136.87
14666;BMP280;7420;53.574;10.040;2023-05-15T01:53:55;54229.28;;;-136.87
14666;BMP280;7420;53.574;10.040;2023-05-15T01:56:23;54229.28;;;-136.87
14666;BMP280;7420;53.574;10.040;2023-05-15T01:58:50;54231.31;;;-136.87
14666;BMP280;7420;53.574;10.040;2023-05-15T02:01:17;54231.31;;;-136.87
14666;BMP280;7420;53.574;10.040;2023-05-15T02:03:44;54233.38;;;-136.87
14666;BMP280;7420;53.574;10.040;2023-05-15T02:06:11;54233.38;;;-136.87
14666;BMP280;7420;53.574;10.040;2023-05-15T02:08:38;54229.28;;;-136.87
14666;BMP280;7420;53.574;10.040;2023-05-15T02:11:04;54231.31;;;-136.87
14666;BMP280;7420;53.574;10.040;2023-05-15T02:13:30;54227.25;;;-136.87
14666;BMP280;7420;53.574;10.040;2023-05-15T02:15:57;54229.28;;;-136.87
14666;BMP280;7420;53.574;10.040;2023-05-15T02:18:22;54227.25;;;-136.87
14666;BMP280;7420;53.574;10.040;2023-05-15T02:20:48;54229.28;;;-136.87
14666;BMP280;7420;53.574;10.040;2023-05-15T02:23:13;54229.28;;;-136.87
14666;BMP280;7420;53.574;10.040;2023-05-15T02:26:09;54229.28;;;-136.87
14666;BMP280;7420;53.574;10.040;2023-05-15T02:28:50;54229.28;;;-136.87
14666;BMP280;7420;53.574;10.040;2023-05-15T02:31:29;54231.31;;;-136.87
14666;BMP280;7420;53.574;10.040;2023-05-15T02:34:12;54229.28;;;-136.87
14666;BMP280;7420;53.574;10.040;2023-05-15T02:36:43;54231.31;;;-136.87
14666;BMP280;7420;53.574;10.040;2023-05-15T02:39:12;54229.28;;;-136.87
14666;BMP280;7420;53.574;10.040;2023-05-15T02:41:40;54229.28;;;-136.87
14666;BMP280;7420;53.574;10.040;2023-05-15T02:44:06;54229.28;;;-136.87
14666;BMP280;7420;53.574;10.040;2023-05-15T02:46:32;54233.38;;;-136.87
14666;BMP280;7420;53.574;10.040;2023-05-15T02:48:58;54229.28;;;-136.87
14666;BMP280;7420;53.574;10.040;2023-05-15T02:51:23;54229.28;;;-136.87
14666;BMP280;7420;53.574;10.040;2023-05-15T02:53:49;54233.38;;;-136.87
14666;BMP280;7420;53.574;10.040;2023-05-15T02:56:15;54231.31;;;-136.87
14666;BMP280;7420;53.574;10.040;2023-05-15T02:58:40;54229.28;;;-136.87
14666;BMP280;7420;53.574;10.040;2023-05-15T03:01:05;54229.28;;;-136.87
14666;BMP280;7420;53.574;10.040;2023-05-15T03:03:31;54231.31;;;-136.87
14666;BMP280;7420;53.574;10.040;2023-05-15T03:05:56;54233.38;;;-136.87
14666;BMP280;7420;53.574;10.040;2023-05-15T03:08:22;54229.28;;;-136.87
14666;BMP280;7420;53.574;10.040;2023-05-15T03:10:47;54231.31;;;-136.87
14666;BMP280;7420;53.574;10.040;2023-05-15T03:13:12;54229.28;;;-136.87
14666;BMP280;7420;53.574;10.040;2023-05-15T03:15:38;54227.25;;;-136.87
14666;BMP280;7420;53.574;10.040;2023-05-15T03:18:03;54231.31;;;-136.87
14666;BMP280;7420;53.574;10.040;2023-05-15T03:20:28;54229.28;;;-136.87
14666;BMP280;7420;53.574;10.040;2023-05-15T03:22:54;54233.38;;;-136.87
14666;BMP280;7420;53.574;10.040;2023-05-15T03:25:21;54227.25;;;-136.87
14666;BMP280;7420;53.574;10.040;2023-05-15T03:27:46;54229.28;;;-136.87
14666;BMP280;7420;53.574;10.040;2023-05-15T03:30:11;54229.28;;;-136.87
14666;BMP280;7420;53.574;10.040;2023-05-15T03:32:37;54227.25;;;-136.87
14666;BMP280;7420;53.574;10.040;2023-05-15T03:35:02;54229.28;;;-136.87
14666;BMP280;7420;53.574;10.040;2023-05-15T03:37:28;54231.31;;;-136.87
14666;BMP280;7420;53.574;10.040;2023-05-15T03:39:53;54233.38;;;-136.87
14666;BMP280;7420;53.574;10.040;2023-05-15T03:42:19;54229.28;;;-136.87
14666;BMP280;7420;53.574;10.040;2023-05-15T03:44:50;54227.25;;;-136.87
14666;BMP280;7420;53.574;10.040;2023-05-15T03:47:16;54231.31;;;-136.87
14666;BMP280;7420;53.574;10.040;2023-05-15T03:49:41;54229.28;;;-136.87
14666;BMP280;7420;53.574;10.040;2023-05-15T03:52:07;54231.31;;;-136.87
14666;BMP280;7420;53.574;10.040;2023-05-15T03:54:33;54229.28;;;-136.87
14666;BMP280;7420;53.574;10.040;2023-05-15T03:57:01;54229.28;;;-136.87
14666;BMP280;7420;53.574;10.040;2023-05-15T03:59:28;54229.28;;;-136.87
14666;BMP280;7420;53.574;10.040;2023-05-15T04:01:54;54227.25;;;-136.87
14666;BMP280;7420;53.574;10.040;2023-05-15T04:04:19;54231.31;;;-136.87
14666;BMP280;7420;53.574;10.040;2023-05-15T04:06:45;54231.31;;;-136.87
14666;BMP280;7420;53.574;10.040;2023-05-15T04:09:10;54229.28;;;-136.87
14666;BMP280;7420;53.574;10.040;2023-05-15T04:11:35;54231.31;;;-136.87
14666;BMP280;7420;53.574;10.040;2023-05-15T04:14:01;54227.25;;;-136.87
14666;BMP280;7420;53.574;10.040;2023-05-15T04:16:26;54229.28;;;-136.87
14666;BMP280;7420;53.574;10.040;2023-05-15T04:18:51;54229.28;;;-136.87
14666;BMP280;7420;53.574;10.040;2023-05-15T04:21:17;54229.28;;;-136.87
14666;BMP280;7420;53.574;10.040;2023-05-15T04:23:42;54229.28;;;-136.87
14666;BMP280;7420;53.574;10.040;2023-05-15T04:26:08;54229.28;;;-136.87
14666;BMP280;7420;53.574;10.040;2023-05-15T04:28:33;54229.28;;;-136.87
14666;BMP280;7420;53.574;10.040;2023-05-15T04:30:58;54227.25;;;-136.87
14666;BMP280;7420;53.574;10.040;2023-05-15T04:33:25;54229.28;;;-136.87
14666;BMP280;7420;53.574;10.040;2023-05-15T04:35:50;54229.28;;;-136.87
14666;BMP280;7420;53.574;10.040;2023-05-15T04:38:16;54229.28;;;-136.87
14666;BMP280;7420;53.574;10.040;2023-05-15T04:40:42;54229.28;;;-136.87
14666;BMP280;7420;53.574;10.040;2023-05-15T04:43:07;54229.28;;;-136.87
14666;BMP280;7420;53.574;10.040;2023-05-15T04:45:33;54229.28;;;-136.87
14666;BMP280;7420;53.574;10.040;2023-05-15T04:47:58;54229.28;;;-136.87
14666;BMP280;7420;53.574;10.040;2023-05-15T04:50:24;54229.28;;;-136.87
14666;BMP280;7420;53.574;10.040;2023-05-15T04:52:50;54227.25;;;-136.87
14666;BMP280;7420;53.574;10.040;2023-05-15T04:55:15;54229.28;;;-136.87
14666;BMP280;7420;53.574;10.040;2023-05-15T04:57:41;54229.28;;;-136.87
14666;BMP280;7420;53.574;10.040;2023-05-15T05:00:06;54227.25;;;-136.87
14666;BMP280;7420;53.574;10.040;2023-05-15T05:02:39;54229.28;;;-136.87
14666;BMP280;7420;53.574;10.040;2023-05-15T05:05:05;54229.28;;;-136.87
14666;BMP280;7420;53.574;10.040;2023-05-15T05:07:32;54229.28;;;-136.87
14666;BMP280;7420;53.574;10.040;2023-05-15T05:09:57;54229.28;;;-136.87
14666;BMP280;7420;53.574;10.040;2023-05-15T05:12:23;54229.28;;;-136.87
14666;BMP280;7420;53.574;10.040;2023-05-15T05:14:48;54229.28;;;-136.87
14666;BMP280;7420;53.574;10.040;2023-05-15T05:17:13;54229.28;;;-136.87
14666;BMP280;7420;53.574;10.040;2023-05-15T05:19:39;54225.19;;;-136.87
14666;BMP280;7420;53.574;10.040;2023-05-15T05:22:06;54225.19;;;-136.87
14666;BMP280;7420;53.574;10.040;2023-05-15T05:24:32;54227.25;;;-136.87
14666;BMP280;7420;53.574;10.040;2023-05-15T05:26:59;54229.28;;;-136.87
14666;BMP280;7420;53.574;10.040;2023-05-15T05:29:25;54229.28;;;-136.87
14666;BMP280;7420;53.574;10.040;2023-05-15T05:31:50;54225.19;;;-136.87
14666;BMP280;7420;53.574;10.040;2023-05-15T05:34:15;54227.25;;;-136.87
14666;BMP280;7420;53.574;10.040;2023-05-15T05:36:41;54229.28;;;-136.87
14666;BMP280;7420;53.574;10.040;2023-05-15T05:39:06;54229.28;;;-136.87
14666;BMP280;7420;53.574;10.040;2023-05-15T05:41:31;54229.28;;;-136.87
14666;BMP280;7420;53.574;10.040;2023-05-15T05:43:57;54229.28;;;-136.87
14666;BMP280;7420;53.574;10.040;2023-05-15T05:46:22;54227.25;;;-136.87
14666;BMP280;7420;53.574;10.040;2023-05-15T05:48:47;54229.28;;;-136.87
14666;BMP280;7420;53.574;10.040;2023-05-15T05:51:13;54229.28;;;-136.87
14666;BMP280;7420;53.574;10.040;2023-05-15T05:53:39;54229.28;;;-136.87
14666;BMP280;7420;53.574;10.040;2023-05-15T05:56:04;54229.28;;;-136.87
14666;BMP280;7420;53.574;10.040;2023-05-15T05:58:30;54227.25;;;-136.87
14666;BMP280;7420;53.574;10.040;2023-05-15T06:00:55;54227.25;;;-136.87
14666;BMP280;7420;53.574;10.040;2023-05-15T06:03:21;54229.28;;;-136.87
14666;BMP280;7420;53.574;10.040;2023-05-15T06:05:46;54229.28;;;-136.87
14666;BMP280;7420;53.574;10.040;2023-05-15T06:08:12;54229.28;;;-136.87
14666;BMP280;7420;53.574;10.040;2023-05-15T06:10:38;54229.28;;;-136.87
14666;BMP280;7420;53.574;10.040;2023-05-15T06:13:04;54225.19;;;-136.87
14666;BMP280;7420;53.574;10.040;2023-05-15T06:15:29;54229.28;;;-136.87
14666;BMP280;7420;53.574;10.040;2023-05-15T06:17:55;54227.25;;;-136.87
14666;BMP280;7420;53.574;10.040;2023-05-15T06:20:20;54227.25;;;-136.87
14666;BMP280;7420;53.574;10.040;2023-05-15T06:22:46;54229.28;;;-136.87
14666;BMP280;7420;53.574;10.040;2023-05-15T06:25:11;54225.19;;;-136.87
14666;BMP280;7420;53.574;10.040;2023-05-15T06:27:39;54225.19;;;-136.87
14666;BMP280;7420;53.574;10.040;2023-05-15T06:30:06;54227.25;;;-136.87
14666;BMP280;7420;53.574;10.040;2023-05-15T06:32:31;54229.28;;;-136.87
14666;BMP280;7420;53.574;10.040;2023-05-15T06:34:57;54229.28;;;-136.87
14666;BMP280;7420;53.574;10.040;2023-05-15T06:37:23;54225.19;;;-136.87
14666;BMP280;7420;53.574;10.040;2023-05-15T06:39:48;54227.25;;;-136.87
14666;BMP280;7420;53.574;10.040;2023-05-15T06:42:14;54227.25;;;-136.87
14666;BMP280;7420;53.574;10.040;2023-05-15T06:44:39;54229.28;;;-136.87
14666;BMP280;7420;53.574;10.040;2023-05-15T06:47:05;54229.28;;;-136.87
14666;BMP280;7420;53.574;10.040;2023-05-15T06:49:30;54227.25;;;-136.87
14666;BMP280;7420;53.574;10.040;2023-05-15T06:51:56;54227.25;;;-136.87
14666;BMP280;7420;53.574;10.040;2023-05-15T06:54:21;54223.16;;;-136.87
14666;BMP280;7420;53.574;10.040;2023-05-15T06:56:47;54225.19;;;-136.87
14666;BMP280;7420;53.574;10.040;2023-05-15T06:59:12;54227.25;;;-136.87
14666;BMP280;7420;53.574;10.040;2023-05-15T07:01:38;54227.25;;;-136.87
14666;BMP280;7420;53.574;10.040;2023-05-15T07:04:03;54221.13;;;-136.87
14666;BMP280;7420;53.574;10.040;2023-05-15T07:06:29;54223.16;;;-136.87
14666;BMP280;7420;53.574;10.040;2023-05-15T07:08:56;54225.19;;;-136.87
14666;BMP280;7420;53.574;10.040;2023-05-15T07:11:22;54225.19;;;-136.87
14666;BMP280;7420;53.574;10.040;2023-05-15T07:13:47;54223.16;;;-136.87
14666;BMP280;7420;53.574;10.040;2023-05-15T07:16:12;54227.25;;;-136.87
14666;BMP280;7420;53.574;10.040;2023-05-15T07:18:38;54225.19;;;-136.87
14666;BMP280;7420;53.574;10.040;2023-05-15T07:21:03;54225.19;;;-136.87
14666;BMP280;7420;53.574;10.040;2023-05-15T07:23:28;54225.19;;;-136.87
14666;BMP280;7420;53.574;10.040;2023-05-15T07:25:54;54223.16;;;-136.87
14666;BMP280;7420;53.574;10.040;2023-05-15T07:28:20;54223.16;;;-136.87
14666;BMP280;7420;53.574;10.040;2023-05-15T07:30:45;54225.19;;;-136.87
14666;BMP280;7420;53.574;10.040;2023-05-15T07:33:10;54225.19;;;-136.87
14666;BMP280;7420;53.574;10.040;2023-05-15T07:35:36;54223.16;;;-136.87
14666;BMP280;7420;53.574;10.040;2023-05-15T07:38:01;54225.19;;;-136.87
14666;BMP280;7420;53.574;10.040;2023-05-15T07:40:27;54225.19;;;-136.87
14666;BMP280;7420;53.574;10.040;2023-05-15T07:42:52;54225.19;;;-136.87
14666;BMP280;7420;53.574;10.040;2023-05-15T07:45:17;54225.19;;;-136.87
14666;BMP280;7420;53.574;10.040;2023-05-15T07:47:47;54227.25;;;-136.87
14666;BMP280;7420;53.574;10.040;2023-05-15T07:50:13;54227.25;;;-136.87
14666;BMP280;7420;53.574;10.040;2023-05-15T07:52:39;54225.19;;;-136.87
14666;BMP280;7420;53.574;10.040;2023-05-15T07:55:05;54225.19;;;-136.87
14666;BMP280;7420;53.574;10.040;2023-05-15T07:57:31;54223.16;;;-136.87
14666;BMP280;7420;53.574;10.040;2023-05-15T07:59:56;54223.16;;;-136.87
14666;BMP280;7420;53.574;10.040;2023-05-15T08:02:22;54225.19;;;-136.87
14666;BMP280;7420;53.574;10.040;2023-05-15T08:04:47;54225.19;;;-136.87
14666;BMP280;7420;53.574;10.040;2023-05-15T08:07:13;54229.28;;;-136.87
14666;BMP280;7420;53.574;10.040;2023-05-15T08:09:38;54225.19;;;-136.87
14666;BMP280;7420;53.574;10.040;2023-05-15T08:12:18;54223.16;;;-136.87
14666;BMP280;7420;53.574;10.040;2023-05-15T08:14:49;54225.19;;;-136.87
14666;BMP280;7420;53.574;10.040;2023-05-15T08:17:15;54225.19;;;-136.87
14666;BMP280;7420;53.574;10.040;2023-05-15T08:19:41;54225.19;;;-136.87
14666;BMP280;7420;53.574;10.040;2023-05-15T08:22:06;54227.25;;;-136.87
14666;BMP280;7420;53.574;10.040;2023-05-15T08:24:32;54223.16;;;-136.87
14666;BMP280;7420;53.574;10.040;2023-05-15T08:26:57;54225.19;;;-136.87
14666;BMP280;7420;53.574;10.040;2023-05-15T08:29:22;54225.19;;;-136.87
14666;BMP280;7420;53.574;10.040;2023-05-15T08:31:48;54225.19;;;-136.87
14666;BMP280;7420;53.574;10.040;2023-05-15T08:34:13;54225.19;;;-136.87
14666;BMP280;7420;53.574;10.040;2023-05-15T08:36:38;54227.25;;;-136.87
14666;BMP280;7420;53.574;10.040;2023-05-15T08:39:04;54225.19;;;-136.87
14666;BMP280;7420;53.574;10.040;2023-05-15T08:41:31;54225.19;;;-136.87
14666;BMP280;7420;53.574;10.040;2023-05-15T08:43:57;54227.25;;;-136.87
14666;BMP280;7420;53.574;10.040;2023-05-15T08:48:52;54225.19;;;-136.87
14666;BMP280;7420;53.574;10.040;2023-05-15T08:51:18;54223.16;;;-136.87
14666;BMP280;7420;53.574;10.040;2023-05-15T08:53:44;54225.19;;;-136.87
14666;BMP280;7420;53.574;10.040;2023-05-15T08:56:10;54225.19;;;-136.87
14666;BMP280;7420;53.574;10.040;2023-05-15T08:58:35;54225.19;;;-136.87
14666;BMP280;7420;53.574;10.040;2023-05-15T09:01:02;54225.19;;;-136.87
14666;BMP280;7420;53.574;10.040;2023-05-15T09:03:27;54229.28;;;-136.87
14666;BMP280;7420;53.574;10.040;2023-05-15T09:05:53;54227.25;;;-136.87
14666;BMP280;7420;53.574;10.040;2023-05-15T09:08:21;54227.25;;;-136.87
14666;BMP280;7420;53.574;10.040;2023-05-15T09:10:51;54225.19;;;-136.87
14666;BMP280;7420;53.574;10.040;2023-05-15T09:13:17;54225.19;;;-136.87
14666;BMP280;7420;53.574;10.040;2023-05-15T09:15:44;54223.16;;;-136.87
14666;BMP280;7420;53.574;10.040;2023-05-15T09:20:36;54229.28;;;-136.87
14666;BMP280;7420;53.574;10.040;2023-05-15T09:23:04;54229.28;;;-136.87
14666;BMP280;7420;53.574;10.040;2023-05-15T09:25:45;54225.19;;;-136.87
14666;BMP280;7420;53.574;10.040;2023-05-15T09:28:27;54223.16;;;-136.87
14666;BMP280;7420;53.574;10.040;2023-05-15T09:31:03;54229.28;;;-136.87
14666;BMP280;7420;53.574;10.040;2023-05-15T09:33:34;54231.31;;;-136.87
14666;BMP280;7420;53.574;10.040;2023-05-15T09:36:02;54237.44;;;-136.87
14666;BMP280;7420;53.574;10.040;2023-05-15T09:38:27;54231.31;;;-136.87
14666;BMP280;7420;53.574;10.040;2023-05-15T09:41:04;54233.38;;;-136.87
14666;BMP280;7420;53.574;10.040;2023-05-15T09:45:58;54237.44;;;-136.87
14666;BMP280;7420;53.574;10.040;2023-05-15T09:48:24;54239.50;;;-136.87
14666;BMP280;7420;53.574;10.040;2023-05-15T09:50:49;54237.44;;;-136.87
14666;BMP280;7420;53.574;10.040;2023-05-15T09:53:15;54237.44;;;-136.87
14666;BMP280;7420;53.574;10.040;2023-05-15T09:55:41;54241.53;;;-136.87
14666;BMP280;7420;53.574;10.040;2023-05-15T09:58:15;54239.50;;;-136.87
14666;BMP280;7420;53.574;10.040;2023-05-15T10:00:41;54241.53;;;-136.87
14666;BMP280;7420;53.574;10.040;2023-05-15T10:03:08;54243.59;;;-136.87
14666;BMP280;7420;53.574;10.040;2023-05-15T10:05:34;54239.50;;;-136.87
14666;BMP280;7420;53.574;10.040;2023-05-15T10:08:00;54243.59;;;-136.87
14666;BMP280;7420;53.574;10.040;2023-05-15T10:10:26;54239.50;;;-136.87
14666;BMP280;7420;53.574;10.040;2023-05-15T10:12:53;54243.59;;;-136.87
14666;BMP280;7420;53.574;10.040;2023-05-15T10:15:21;54241.53;;;-136.87
14666;BMP280;7420;53.574;10.040;2023-05-15T10:17:47;54239.50;;;-136.87
14666;BMP280;7420;53.574;10.040;2023-05-15T10:20:15;54241.53;;;-136.87
14666;BMP280;7420;53.574;10.040;2023-05-15T10:22:44;54245.63;;;-136.87
14666;BMP280;7420;53.574;10.040;2023-05-15T10:25:25;54245.63;;;-136.87
14666;BMP280;7420;53.574;10.040;2023-05-15T10:27:51;54245.63;;;-136.87
14666;BMP280;7420;53.574;10.040;2023-05-15T10:30:18;54241.53;;;-136.87
14666;BMP280;7420;53.574;10.040;2023-05-15T10:32:44;54243.59;;;-136.87
14666;BMP280;7420;53.574;10.040;2023-05-15T10:35:10;54245.63;;;-136.87
14666;BMP280;7420;53.574;10.040;2023-05-15T10:37:38;54241.53;;;-136.87
14666;BMP280;7420;53.574;10.040;2023-05-15T10:40:08;54237.44;;;-136.87
14666;BMP280;7420;53.574;10.040;2023-05-15T10:42:35;54241.53;;;-136.87
14666;BMP280;7420;53.574;10.040;2023-05-15T10:45:03;54237.44;;;-136.87
14666;BMP280;7420;53.574;10.040;2023-05-15T10:47:30;54235.41;;;-136.87
14666;BMP280;7420;53.574;10.040;2023-05-15T10:49:56;54241.53;;;-136.87
14666;BMP280;7420;53.574;10.040;2023-05-15T10:52:22;54241.53;;;-136.87
14666;BMP280;7420;53.574;10.040;2023-05-15T10:54:48;54241.53;;;-136.87
14666;BMP280;7420;53.574;10.040;2023-05-15T10:57:14;54241.53;;;-136.87
14666;BMP280;7420;53.574;10.040;2023-05-15T10:59:39;54241.53;;;-136.87
14666;BMP280;7420;53.574;10.040;2023-05-15T11:02:27;54241.53;;;-136.87
14666;BMP280;7420;53.574;10.040;2023-05-15T11:05:02;54237.44;;;-136.87
14666;BMP280;7420;53.574;10.040;2023-05-15T11:07:30;54239.50;;;-136.87
14666;BMP280;7420;53.574;10.040;2023-05-15T11:09:55;54237.44;;;-136.87
14666;BMP280;7420;53.574;10.040;2023-05-15T11:12:22;54241.53;;;-136.87
14666;BMP280;7420;53.574;10.040;2023-05-15T11:17:16;54237.44;;;-136.87
14666;BMP280;7420;53.574;10.040;2023-05-15T11:25:09;54239.50;;;-136.87
14666;BMP280;7420;53.574;10.040;2023-05-15T11:27:39;54239.50;;;-136.87
14666;BMP280;7420;53.574;10.040;2023-05-15T11:30:21;54239.50;;;-136.87
14666;BMP280;7420;53.574;10.040;2023-05-15T11:32:59;54239.50;;;-136.87
14666;BMP280;7420;53.574;10.040;2023-05-15T11:35:37;54239.50;;;-136.87
14666;BMP280;7420;53.574;10.040;2023-05-15T11:38:04;54239.50;;;-136.87
14666;BMP280;7420;53.574;10.040;2023-05-15T11:40:54;54241.53;;;-136.87
14666;BMP280;7420;53.574;10.040;2023-05-15T11:43:22;54237.44;;;-136.87
14666;BMP280;7420;53.574;10.040;2023-05-15T11:48:18;54241.53;;;-136.87
14666;BMP280;7420;53.574;10.040;2023-05-15T11:50:43;54243.59;;;-136.87
14666;BMP280;7420;53.574;10.040;2023-05-15T11:53:10;54239.50;;;-136.87
14666;BMP280;7420;53.574;10.040;2023-05-15T11:55:37;54245.63;;;-136.87
14666;BMP280;7420;53.574;10.040;2023-05-15T11:58:05;54241.53;;;-136.87
14666;BMP280;7420;53.574;10.040;2023-05-15T12:00:34;54241.53;;;-136.87
14666;BMP280;7420;53.574;10.040;2023-05-15T12:02:59;54243.59;;;-136.87
14666;BMP280;7420;53.574;10.040;2023-05-15T12:05:25;54247.66;;;-136.87
14666;BMP280;7420;53.574;10.040;2023-05-15T12:07:50;54241.53;;;-136.87
14666;BMP280;7420;53.574;10.040;2023-05-15T12:10:16;54241.53;;;-136.87
14666;BMP280;7420;53.574;10.040;2023-05-15T12:12:43;54241.53;;;-136.87
14666;BMP280;7420;53.574;10.040;2023-05-15T12:15:09;54243.59;;;-136.87
14666;BMP280;7420;53.574;10.040;2023-05-15T12:17:39;54241.53;;;-136.87
14666;BMP280;7420;53.574;10.040;2023-05-15T12:20:10;54241.53;;;-136.87
14666;BMP280;7420;53.574;10.040;2023-05-15T12:22:37;54239.50;;;-136.87
14666;BMP280;7420;53.574;10.040;2023-05-15T12:25:05;54241.53;;;-136.87
14666;BMP280;7420;53.574;10.040;2023-05-15T12:27:31;54237.44;;;-136.87
14666;BMP280;7420;53.574;10.040;2023-05-15T12:29:57;54241.53;;;-136.87
14666;BMP280;7420;53.574;10.040;2023-05-15T12:32:23;54237.44;;;-136.87
14666;BMP280;7420;53.574;10.040;2023-05-15T12:34:48;54237.44;;;-136.87
14666;BMP280;7420;53.574;10.040;2023-05-15T12:37:14;54237.44;;;-136.87
14666;BMP280;7420;53.574;10.040;2023-05-15T12:39:53;54237.44;;;-136.87
14666;BMP280;7420;53.574;10.040;2023-05-15T12:42:19;54239.50;;;-136.87
14666;BMP280;7420;53.574;10.040;2023-05-15T12:44:44;54241.53;;;-136.87
14666;BMP280;7420;53.574;10.040;2023-05-15T12:47:13;54235.41;;;-136.87
14666;BMP280;7420;53.574;10.040;2023-05-15T12:49:40;54233.38;;;-136.87
14666;BMP280;7420;53.574;10.040;2023-05-15T12:52:09;54235.41;;;-136.87
14666;BMP280;7420;53.574;10.040;2023-05-15T12:54:38;54239.50;;;-136.87
14666;BMP280;7420;53.574;10.040;2023-05-15T12:57:05;54239.50;;;-136.87
14666;BMP280;7420;53.574;10.040;2023-05-15T12:59:32;54235.41;;;-136.87
14666;BMP280;7420;53.574;10.040;2023-05-15T13:01:57;54233.38;;;-136.87
14666;BMP280;7420;53.574;10.040;2023-05-15T13:04:23;54229.28;;;-136.87
14666;BMP280;7420;53.574;10.040;2023-05-15T13:06:48;54229.28;;;-136.87
14666;BMP280;7420;53.574;10.040;2023-05-15T13:09:20;54229.28;;;-136.87
14666;BMP280;7420;53.574;10.040;2023-05-15T13:11:45;54229.28;;;-136.87
14666;BMP280;7420;53.574;10.040;2023-05-15T13:14:10;54233.38;;;-136.87
14666;BMP280;7420;53.574;10.040;2023-05-15T13:16:42;54229.28;;;-136.87
14666;BMP280;7420;53.574;10.040;2023-05-15T13:19:07;54233.38;;;-136.87
14666;BMP280;7420;53.574;10.040;2023-05-15T13:21:34;54229.28;;;-136.87
14666;BMP280;7420;53.574;10.040;2023-05-15T13:23:59;54233.38;;;-136.87
14666;BMP280;7420;53.574;10.040;2023-05-15T13:26:25;54229.28;;;-136.87
14666;BMP280;7420;53.574;10.040;2023-05-15T13:28:50;54233.38;;;-136.87
14666;BMP280;7420;53.574;10.040;2023-05-15T13:31:15;54229.28;;;-136.87
14666;BMP280;7420;53.574;10.040;2023-05-15T13:33:41;54229.28;;;-136.87
14666;BMP280;7420;53.574;10.040;2023-05-15T13:36:07;54229.28;;;-136.87
14666;BMP280;7420;53.574;10.040;2023-05-15T13:38:33;54229.28;;;-136.87
14666;BMP280;7420;53.574;10.040;2023-05-15T13:40:58;54229.28;;;-136.87
14666;BMP280;7420;53.574;10.040;2023-05-15T13:43:23;54227.25;;;-136.87
14666;BMP280;7420;53.574;10.040;2023-05-15T13:45:49;54233.38;;;-136.87
14666;BMP280;7420;53.574;10.040;2023-05-15T13:48:14;54227.25;;;-136.87
14666;BMP280;7420;53.574;10.040;2023-05-15T13:50:40;54227.25;;;-136.87
14666;BMP280;7420;53.574;10.040;2023-05-15T13:53:07;54229.28;;;-136.87
14666;BMP280;7420;53.574;10.040;2023-05-15T13:55:33;54229.28;;;-136.87
14666;BMP280;7420;53.574;10.040;2023-05-15T13:57:59;54225.19;;;-136.87
14666;BMP280;7420;53.574;10.040;2023-05-15T14:00:25;54227.25;;;-136.87
14666;BMP280;7420;53.574;10.040;2023-05-15T14:02:50;54229.28;;;-136.87
14666;BMP280;7420;53.574;10.040;2023-05-15T14:05:16;54227.25;;;-136.87
14666;BMP280;7420;53.574;10.040;2023-05-15T14:07:41;54225.19;;;-136.87